Airfield :
LOGIN :

Register | Disclaimer

   EN    FR    IT 

 










Legend :    VFR   Marginal VFR   IFR   Intensive IFR   Very Intensive IFR
Visi :
Ceiling :
>= 8 km
>= 3000ft
5 to 8 km
1000 to 3000 ft
1500m to 5 km
500 to 1000 ft
800 to 1500m
200 to 500 ft
< 800m
< 200 ft
Symbols :   Thunderstorms  Fog  Heavy snow  Heavy precipitations  Wind > 20 kt
SIGMETs :     Misc.  Thunderstorms  Icing  Turbulence  Mountain Waves  Volcanic Ashes







- Airport Elevation : 79 ft
- IATA code : SPU


LDSP - Split

CURRENT METAR :
  • 160630Z VRB02KT CAVOK 27/17 Q1013 NOSIG

EXPIRED METARs :
  • 160600Z VRB02KT CAVOK 26/17 Q1012 NOSIG
  • 160530Z VRB02KT CAVOK 25/18 Q1012 NOSIG
  • 160500Z VRB01KT CAVOK 26/18 Q1012 NOSIG
  • 160430Z 36003KT CAVOK 23/18 Q1012 NOSIG
  • 160400Z 02004KT CAVOK 21/18 Q1012 NOSIG

TAF TAF LDSP
Valid from the 16 at 06:00 until the 17 at 06:00 UTC


160525Z 1606/1706 VRB02KT CAVOK TX31/1612Z TN20/1705Z
BECMG 1609/1611 23010KT
BECMG 1617/1619 30008KT
TEMPO 1622/1704 3000 TSRA FEW030CB BKN040
No reported NOTAMs for that airfield.



MET'MAP, your aeronautical weather chart ! - Copyright ORBIFLY December 2007 - Disclaimer

ORBIFLY MET'MAP TEAM :

Programming & Development : Alexandra Zaïnal
Concept & Development : Baudouin d'Aumeries
Co-Development & Prog : Marc-Olivier Méhu
Technical & hardware support : Manuel Goepfert

Contact : metmap@orbifly.com




SOURCES & CREDITS :

   NOAA